createdAt,value
2019-01-09T00:01:39.947Z,3.80
2019-01-09T00:06:44.547Z,3.90
2019-01-09T00:11:47.636Z,3.90
2019-01-09T00:16:51.378Z,4.00
2019-01-09T00:21:54.774Z,4.10
2019-01-09T00:27:00.838Z,4.10
2019-01-09T00:32:21.768Z,4.10
2019-01-09T00:37:27.615Z,4.20
2019-01-09T00:42:30.568Z,4.20
2019-01-09T00:47:33.374Z,4.20
2019-01-09T00:52:36.907Z,4.20
2019-01-09T00:57:39.600Z,4.10
2019-01-09T01:03:16.284Z,4.00
2019-01-09T01:09:05.747Z,4.00
2019-01-09T01:14:49.963Z,3.90
2019-01-09T01:20:10.791Z,3.80
2019-01-09T01:25:51.420Z,3.80
2019-01-09T01:31:46.517Z,3.70
2019-01-09T01:37:30.394Z,3.80
2019-01-09T01:43:14.763Z,3.60
2019-01-09T01:48:54.339Z,3.60
2019-01-09T01:54:17.925Z,3.60
2019-01-09T01:59:39.883Z,3.50
2019-01-09T02:05:10.837Z,3.50
2019-01-09T02:10:53.135Z,3.60
2019-01-09T02:16:45.642Z,3.70
2019-01-09T02:22:33.943Z,3.60
2019-01-09T02:27:52.762Z,3.60
2019-01-09T02:32:57.239Z,3.70
2019-01-09T02:38:03.324Z,3.80
2019-01-09T02:43:19.993Z,3.80
2019-01-09T02:48:23.439Z,3.80
2019-01-09T02:53:26.939Z,3.80
2019-01-09T02:58:30.855Z,3.70
2019-01-09T03:03:38.463Z,3.70
2019-01-09T03:08:41.916Z,3.70
2019-01-09T03:13:45.833Z,3.70
2019-01-09T03:18:48.687Z,3.70
2019-01-09T03:24:09.424Z,3.70
2019-01-09T03:29:15.134Z,3.70
2019-01-09T03:34:17.847Z,3.80
2019-01-09T03:39:20.590Z,3.80
2019-01-09T03:44:27.950Z,3.80
2019-01-09T03:49:31.544Z,3.70
2019-01-09T03:54:35.920Z,3.70
2019-01-09T03:59:56.930Z,3.60
2019-01-09T04:05:01.774Z,3.60
2019-01-09T04:10:06.771Z,3.70
2019-01-09T04:15:27.959Z,3.60
2019-01-09T04:20:41.429Z,3.50
2019-01-09T04:25:44.986Z,3.50
2019-01-09T04:30:51.719Z,3.50
2019-01-09T04:35:54.669Z,3.50
2019-01-09T04:40:58.915Z,3.60
2019-01-09T04:46:01.564Z,3.60
2019-01-09T04:51:04.214Z,3.60
2019-01-09T04:56:07.071Z,3.60
2019-01-09T05:01:11.366Z,3.60
2019-01-09T05:06:14.249Z,3.60
2019-01-09T05:11:20.356Z,3.60
2019-01-09T05:16:23.182Z,3.60
2019-01-09T05:21:27.254Z,3.60
2019-01-09T05:26:30.535Z,3.60
2019-01-09T05:31:36.319Z,3.50
2019-01-09T05:36:43.047Z,3.40
2019-01-09T05:41:46.536Z,3.30
2019-01-09T05:46:50.089Z,3.30
2019-01-09T05:51:52.906Z,3.30
2019-01-09T05:56:56.541Z,3.30
2019-01-09T06:02:00.055Z,3.30
2019-01-09T06:07:03.575Z,3.30
2019-01-09T06:12:08.227Z,3.30
2019-01-09T06:17:14.117Z,3.30
2019-01-09T06:22:16.996Z,3.30
2019-01-09T06:27:20.554Z,3.30
2019-01-09T06:32:23.379Z,3.30
2019-01-09T06:37:29.224Z,3.20
2019-01-09T06:42:32.385Z,3.20
2019-01-09T06:47:37.106Z,3.20
2019-01-09T06:52:41.865Z,3.10
2019-01-09T06:58:02.635Z,3.00
2019-01-09T07:03:06.122Z,3.10
2019-01-09T07:08:09.559Z,3.10
2019-01-09T07:13:13.175Z,3.00
2019-01-09T07:18:15.830Z,3.00
2019-01-09T07:23:21.512Z,3.00
2019-01-09T07:28:25.148Z,2.90
2019-01-09T07:33:29.979Z,2.90
2019-01-09T07:38:32.642Z,2.90
2019-01-09T07:43:38.339Z,2.90
2019-01-09T07:48:41.539Z,2.90
2019-01-09T07:53:47.292Z,2.90
2019-01-09T07:58:50.575Z,2.90
2019-01-09T08:03:54.215Z,2.90
2019-01-09T08:08:57.619Z,3.00
2019-01-09T08:14:01.141Z,3.00
2019-01-09T08:19:04.682Z,3.10
2019-01-09T08:24:08.173Z,3.10
2019-01-09T08:29:11.559Z,3.20
2019-01-09T08:34:14.723Z,3.20
2019-01-09T08:39:17.455Z,3.20
2019-01-09T08:44:21.787Z,3.30
2019-01-09T08:49:26.270Z,3.30
2019-01-09T08:54:29.914Z,3.30
2019-01-09T08:59:37.555Z,3.40
2019-01-09T09:04:40.832Z,3.40
2019-01-09T09:09:44.122Z,3.50
2019-01-09T09:14:47.572Z,3.60
2019-01-09T09:19:50.371Z,3.60
2019-01-09T09:24:53.615Z,3.70
2019-01-09T09:29:59.367Z,3.70
2019-01-09T09:35:03.826Z,3.70
2019-01-09T09:40:25.556Z,3.70
2019-01-09T09:45:29.514Z,3.70
2019-01-09T09:50:37.307Z,3.80
2019-01-09T09:55:49.195Z,3.70
2019-01-09T10:00:52.100Z,3.70
2019-01-09T10:06:04.892Z,3.70
2019-01-09T10:11:10.710Z,3.70
2019-01-09T10:16:16.705Z,3.70
2019-01-09T10:21:20.078Z,3.80
2019-01-09T10:26:24.280Z,3.80
2019-01-09T10:31:28.734Z,3.90
2019-01-09T10:36:35.695Z,3.90
2019-01-09T10:41:39.163Z,3.90
2019-01-09T10:46:42.996Z,3.80
2019-01-09T10:51:49.291Z,3.80
2019-01-09T10:56:55.032Z,3.80
2019-01-09T11:02:16.307Z,3.80
2019-01-09T11:07:19.170Z,3.70
2019-01-09T11:12:40.858Z,3.70
2019-01-09T11:17:46.632Z,3.70
2019-01-09T11:22:50.175Z,3.70
2019-01-09T11:27:52.977Z,3.80
2019-01-09T11:33:13.957Z,3.80
2019-01-09T11:38:17.391Z,3.90
2019-01-09T11:43:30.176Z,3.90
2019-01-09T11:48:32.971Z,3.90
2019-01-09T11:53:37.222Z,3.80
2019-01-09T11:58:41.715Z,3.70
2019-01-09T12:04:02.929Z,3.70
2019-01-09T12:09:23.863Z,3.70
2019-01-09T12:14:44.948Z,3.70
2019-01-09T12:19:48.279Z,3.70
2019-01-09T12:24:52.614Z,3.70
2019-01-09T12:29:55.400Z,3.80
2019-01-09T12:35:03.204Z,3.70
2019-01-09T12:40:09.959Z,3.70
2019-01-09T12:45:31.331Z,3.70
2019-01-09T12:50:37.183Z,3.70
2019-01-09T12:55:39.966Z,3.70
2019-01-09T13:00:42.646Z,3.80
2019-01-09T13:05:46.564Z,3.60
2019-01-09T13:10:49.558Z,3.60
2019-01-09T13:15:52.682Z,3.60
2019-01-09T13:20:56.215Z,3.60
2019-01-09T13:25:59.239Z,3.60
2019-01-09T13:31:02.675Z,3.60
2019-01-09T13:36:14.559Z,3.40
2019-01-09T13:41:18.214Z,3.60
2019-01-09T13:46:25.026Z,3.60
2019-01-09T13:51:27.853Z,3.60
2019-01-09T13:56:30.883Z,3.60
2019-01-09T14:01:34.336Z,3.60
2019-01-09T14:06:37.038Z,3.60
2019-01-09T14:11:58.228Z,3.60
2019-01-09T14:17:02.748Z,3.50
2019-01-09T14:22:06.286Z,3.40
2019-01-09T14:27:09.725Z,3.40
2019-01-09T14:32:30.710Z,3.30
2019-01-09T14:37:36.622Z,3.30
2019-01-09T14:42:39.419Z,3.30
2019-01-09T14:47:42.635Z,3.20
2019-01-09T14:52:45.459Z,3.20
2019-01-09T14:57:48.947Z,3.20
2019-01-09T15:02:52.527Z,3.10
2019-01-09T15:07:57.210Z,3.10
2019-01-09T15:13:00.832Z,3.00
2019-01-09T15:18:03.734Z,3.00
2019-01-09T15:23:06.460Z,2.90
2019-01-09T15:28:10.236Z,2.90
2019-01-09T15:33:13.093Z,2.90
2019-01-09T15:38:20.067Z,2.90
2019-01-09T15:43:26.095Z,2.80
2019-01-09T15:48:29.748Z,2.80
2019-01-09T15:53:50.938Z,2.80
2019-01-09T15:58:54.542Z,2.80
2019-01-09T16:04:00.439Z,2.70
2019-01-09T16:09:21.531Z,2.70
2019-01-09T16:14:27.755Z,2.70
2019-01-09T16:19:31.515Z,2.70
2019-01-09T16:24:38.011Z,2.70
2019-01-09T16:29:41.611Z,2.70
2019-01-09T16:34:47.707Z,2.70
2019-01-09T16:39:50.327Z,2.70
2019-01-09T16:45:11.943Z,2.70
2019-01-09T16:50:16.924Z,2.70
2019-01-09T16:55:20.387Z,2.70
2019-01-09T17:00:41.540Z,2.70
2019-01-09T17:06:37.529Z,2.70
2019-01-09T17:11:58.930Z,2.60
2019-01-09T17:17:20.706Z,2.70
2019-01-09T17:22:43.861Z,2.70
2019-01-09T17:27:47.355Z,2.70
2019-01-09T17:32:51.261Z,2.80
2019-01-09T17:38:12.709Z,2.70
2019-01-09T17:43:18.411Z,2.80
2019-01-09T17:48:25.202Z,2.80
2019-01-09T17:53:30.646Z,2.80
2019-01-09T17:58:34.441Z,2.80
2019-01-09T18:03:37.187Z,2.80
2019-01-09T18:08:39.991Z,2.80
2019-01-09T18:14:01.091Z,2.80
2019-01-09T18:19:23.475Z,2.80
2019-01-09T18:24:27.835Z,2.80
2019-01-09T18:29:33.867Z,2.80
2019-01-09T18:34:45.148Z,2.80
2019-01-09T18:40:58.730Z,2.80
2019-01-09T18:46:19.516Z,2.80
2019-01-09T18:52:21.682Z,2.70
2019-01-09T18:57:24.499Z,2.80
2019-01-09T19:02:30.347Z,2.80
2019-01-09T19:07:35.559Z,2.90
2019-01-09T19:12:38.381Z,2.90
2019-01-09T19:17:41.702Z,2.90
2019-01-09T19:22:44.601Z,2.90
2019-01-09T19:27:49.274Z,2.90
2019-01-09T19:32:56.175Z,3.00
2019-01-09T19:38:03.719Z,3.00
2019-01-09T19:43:06.992Z,3.00
2019-01-09T19:48:10.197Z,3.00
2019-01-09T19:53:18.038Z,2.90
2019-01-09T19:58:25.395Z,2.90
2019-01-09T20:03:29.502Z,2.90
2019-01-09T20:08:34.369Z,3.00
2019-01-09T20:13:41.498Z,3.00
2019-01-09T20:19:02.568Z,2.90
2019-01-09T20:24:05.562Z,2.90
2019-01-09T20:29:26.918Z,2.90
2019-01-09T20:34:29.819Z,2.90
2019-01-09T20:39:35.529Z,2.90
2019-01-09T20:44:38.970Z,3.00
2019-01-09T20:55:15.761Z,2.90
2019-01-09T21:00:36.802Z,2.90
2019-01-09T21:05:58.009Z,2.80
2019-01-09T21:11:01.284Z,2.80
2019-01-09T21:16:22.589Z,2.70
2019-01-09T21:21:25.291Z,2.70
2019-01-09T21:26:52.866Z,2.70
